createdAt,value
2022-11-30T00:01:44.525Z,88.96
2022-11-30T00:04:17.427Z,90.36
2022-11-30T00:06:50.482Z,89.84
2022-11-30T00:09:25.548Z,89.79
2022-11-30T00:11:58.547Z,89.90
2022-11-30T00:14:31.919Z,89.72
2022-11-30T00:17:04.992Z,89.15
2022-11-30T00:19:38.019Z,88.80
2022-11-30T00:22:10.894Z,89.10
2022-11-30T00:24:44.052Z,89.74
2022-11-30T00:27:16.998Z,89.48
2022-11-30T00:29:49.697Z,89.23
2022-11-30T00:32:22.552Z,89.40
2022-11-30T00:34:55.355Z,89.15
2022-11-30T00:37:28.321Z,89.27
2022-11-30T00:40:01.552Z,89.96
2022-11-30T00:42:34.517Z,89.21
2022-11-30T00:45:08.496Z,88.75
2022-11-30T00:47:41.795Z,89.08
2022-11-30T00:50:15.042Z,89.13
2022-11-30T00:52:47.939Z,89.20
2022-11-30T00:55:20.835Z,89.20
2022-11-30T00:57:54.434Z,89.64
2022-11-30T01:00:28.345Z,90.23
2022-11-30T01:03:01.522Z,89.40
2022-11-30T01:05:35.364Z,89.55
2022-11-30T01:08:11.364Z,89.24
2022-11-30T01:10:45.141Z,89.11
2022-11-30T01:13:18.078Z,89.01
2022-11-30T01:15:51.253Z,89.08
2022-11-30T01:18:24.688Z,89.51
2022-11-30T01:20:57.692Z,89.17
2022-11-30T01:23:30.543Z,88.21
2022-11-30T01:26:04.032Z,88.51
2022-11-30T01:28:37.332Z,88.30
2022-11-30T01:31:14.344Z,88.28
2022-11-30T01:33:55.474Z,88.28
2022-11-30T01:36:28.162Z,88.79
2022-11-30T01:39:00.783Z,89.59
2022-11-30T01:41:33.595Z,89.41
2022-11-30T01:44:06.194Z,89.01
2022-11-30T01:46:55.144Z,88.70
2022-11-30T01:49:38.228Z,89.13
2022-11-30T01:52:17.382Z,88.74
2022-11-30T01:55:14.580Z,88.42
2022-11-30T01:58:24.104Z,88.23
2022-11-30T02:00:57.123Z,88.70
2022-11-30T02:04:24.140Z,88.57
2022-11-30T02:07:03.397Z,88.32
2022-11-30T02:09:44.922Z,88.92
2022-11-30T02:13:10.634Z,88.52
2022-11-30T02:16:10.733Z,89.12
2022-11-30T02:19:11.701Z,88.91
2022-11-30T02:22:22.397Z,89.80
2022-11-30T02:25:14.074Z,89.18
2022-11-30T02:28:18.912Z,89.48
2022-11-30T02:30:54.626Z,88.35
2022-11-30T02:33:33.030Z,87.86
2022-11-30T02:36:09.899Z,87.74
2022-11-30T02:38:43.165Z,87.42
2022-11-30T02:41:16.011Z,86.96
2022-11-30T02:43:49.348Z,87.19
2022-11-30T02:46:54.494Z,86.82
2022-11-30T02:49:42.388Z,86.72
2022-11-30T02:52:19.435Z,86.63
2022-11-30T02:54:58.593Z,86.82
2022-11-30T02:57:31.279Z,86.39
2022-11-30T03:00:10.189Z,86.64
2022-11-30T03:02:43.180Z,86.17
2022-11-30T03:05:16.119Z,86.35
2022-11-30T03:07:48.918Z,86.35
2022-11-30T03:10:21.982Z,85.80
2022-11-30T03:12:59.570Z,86.45
2022-11-30T03:15:32.383Z,86.16
2022-11-30T03:18:06.546Z,86.28
2022-11-30T03:20:43.257Z,86.49
2022-11-30T03:23:16.154Z,86.94
2022-11-30T03:25:48.968Z,86.43
2022-11-30T03:28:21.974Z,86.18
2022-11-30T03:30:55.065Z,86.51
2022-11-30T03:33:27.798Z,86.91
2022-11-30T03:36:07.700Z,87.22
2022-11-30T03:38:40.753Z,87.16
2022-11-30T03:41:16.971Z,86.94
2022-11-30T03:43:49.815Z,86.69
2022-11-30T03:46:23.035Z,86.58
2022-11-30T03:48:55.763Z,86.32
2022-11-30T03:51:28.816Z,86.29
2022-11-30T03:54:02.168Z,86.96
2022-11-30T03:56:34.883Z,87.87
2022-11-30T03:59:07.767Z,88.18
2022-11-30T04:01:41.235Z,87.33
2022-11-30T04:04:14.487Z,87.14
2022-11-30T04:06:47.428Z,87.03
2022-11-30T04:09:20.481Z,86.53
2022-11-30T04:11:53.456Z,86.82
2022-11-30T04:14:26.352Z,86.55
2022-11-30T04:16:59.454Z,86.26
2022-11-30T04:19:32.210Z,86.48
2022-11-30T04:22:07.983Z,86.27
2022-11-30T04:24:41.035Z,86.29
2022-11-30T04:27:16.579Z,87.51
2022-11-30T04:29:49.954Z,87.00
2022-11-30T04:32:23.128Z,87.87
2022-11-30T04:34:55.962Z,88.47
2022-11-30T04:37:28.807Z,88.43
2022-11-30T04:40:02.988Z,88.66
2022-11-30T04:42:35.866Z,88.76
2022-11-30T04:45:10.257Z,89.46
2022-11-30T04:47:43.332Z,89.27
2022-11-30T04:50:17.431Z,88.96
2022-11-30T04:52:50.545Z,88.75
2022-11-30T04:55:24.619Z,88.45
2022-11-30T04:57:57.505Z,88.63
2022-11-30T05:00:31.081Z,88.95
2022-11-30T05:03:04.296Z,88.42
2022-11-30T05:05:37.394Z,88.53
2022-11-30T05:08:10.364Z,90.36
2022-11-30T05:10:43.098Z,89.08
2022-11-30T05:13:16.011Z,89.07
2022-11-30T05:15:48.983Z,88.92
2022-11-30T05:18:25.152Z,89.40
2022-11-30T05:20:58.246Z,88.37
2022-11-30T05:23:31.024Z,88.77
2022-11-30T05:26:04.639Z,88.19
2022-11-30T05:28:37.509Z,88.42
2022-11-30T05:31:10.401Z,88.90
2022-11-30T05:33:44.451Z,89.34
2022-11-30T05:36:17.409Z,88.10
2022-11-30T05:38:50.569Z,88.47
2022-11-30T05:41:23.645Z,88.44
2022-11-30T05:43:57.125Z,87.60
2022-11-30T05:46:30.318Z,87.90
2022-11-30T05:49:03.332Z,87.69
2022-11-30T05:51:36.634Z,88.15
2022-11-30T05:54:10.050Z,87.65
2022-11-30T05:56:43.239Z,89.68
2022-11-30T05:59:16.018Z,89.81
2022-11-30T06:01:49.519Z,89.14
2022-11-30T06:04:22.706Z,88.69
2022-11-30T06:06:55.988Z,87.99
2022-11-30T06:09:29.575Z,88.03
2022-11-30T06:12:02.373Z,87.63
2022-11-30T06:14:35.115Z,88.60
2022-11-30T06:17:07.775Z,88.03
2022-11-30T06:19:40.509Z,87.78
2022-11-30T06:22:13.446Z,87.98
2022-11-30T06:24:46.453Z,87.63
2022-11-30T06:27:19.373Z,88.20
2022-11-30T06:29:52.312Z,88.40
2022-11-30T06:32:27.576Z,88.20
2022-11-30T06:35:00.424Z,88.49
2022-11-30T06:37:35.983Z,88.10
2022-11-30T06:40:11.789Z,88.05
2022-11-30T06:42:44.692Z,87.75
2022-11-30T06:45:17.691Z,87.71
2022-11-30T06:47:50.666Z,87.82
2022-11-30T06:50:24.302Z,88.60
2022-11-30T06:52:59.192Z,88.02
2022-11-30T06:55:35.481Z,89.45
2022-11-30T06:58:10.430Z,88.30
2022-11-30T07:00:46.347Z,88.95
2022-11-30T07:03:19.019Z,88.28
2022-11-30T07:05:52.022Z,88.39
2022-11-30T07:08:24.799Z,87.93
2022-11-30T07:11:00.551Z,87.78
2022-11-30T07:13:33.951Z,88.50
2022-11-30T07:16:11.277Z,87.96
2022-11-30T07:18:44.063Z,87.84
2022-11-30T07:21:17.301Z,88.27
2022-11-30T07:24:08.815Z,87.74
2022-11-30T07:26:41.994Z,87.45
2022-11-30T07:29:15.177Z,87.76
2022-11-30T07:31:52.450Z,88.00
2022-11-30T07:34:25.563Z,88.33
2022-11-30T07:36:58.586Z,87.61
2022-11-30T07:39:31.558Z,88.15
2022-11-30T07:42:04.323Z,87.78
2022-11-30T07:44:36.923Z,88.26
2022-11-30T07:47:09.865Z,87.88
2022-11-30T07:49:42.678Z,87.79
2022-11-30T07:52:15.547Z,87.83
2022-11-30T07:54:48.597Z,87.39
2022-11-30T07:57:21.279Z,87.41
2022-11-30T07:59:53.926Z,87.20
2022-11-30T08:02:26.656Z,87.92
2022-11-30T08:04:59.634Z,88.03
2022-11-30T08:07:32.390Z,87.79
2022-11-30T08:10:06.944Z,87.42
2022-11-30T08:12:39.654Z,87.91
2022-11-30T08:15:19.922Z,87.44
2022-11-30T08:17:55.316Z,86.98
2022-11-30T08:20:27.953Z,86.70
2022-11-30T08:23:00.703Z,87.14
2022-11-30T08:25:35.747Z,86.68
2022-11-30T08:28:08.550Z,87.25
2022-11-30T08:30:41.236Z,87.76
2022-11-30T08:33:14.511Z,87.58
2022-11-30T08:35:47.161Z,87.98
2022-11-30T08:38:19.832Z,88.24
2022-11-30T08:40:58.629Z,87.37
2022-11-30T08:43:32.400Z,87.93
2022-11-30T08:46:34.616Z,88.65
2022-11-30T08:54:49.848Z,87.39
2022-11-30T08:57:23.184Z,86.97
2022-11-30T08:59:56.003Z,88.35
2022-11-30T09:02:28.767Z,87.58
2022-11-30T09:05:01.669Z,87.45
2022-11-30T09:07:34.499Z,87.36
2022-11-30T09:10:08.666Z,87.14
2022-11-30T09:12:42.131Z,87.91
2022-11-30T09:15:15.140Z,86.92
2022-11-30T09:17:47.924Z,87.16
2022-11-30T09:20:20.872Z,87.66
2022-11-30T09:22:53.918Z,87.66
2022-11-30T09:25:26.728Z,86.81
2022-11-30T09:27:59.331Z,86.75
2022-11-30T09:30:32.325Z,86.70
2022-11-30T09:33:05.246Z,86.75
2022-11-30T09:35:38.107Z,85.47
2022-11-30T09:38:11.176Z,86.22
2022-11-30T09:40:44.309Z,85.21
2022-11-30T09:43:51.563Z,86.15
2022-11-30T09:46:41.545Z,84.19
2022-11-30T09:49:24.954Z,83.87
2022-11-30T09:52:04.727Z,84.50
2022-11-30T09:54:42.278Z,85.30
2022-11-30T09:57:29.894Z,84.99
2022-11-30T10:00:23.933Z,84.68
2022-11-30T10:03:02.515Z,84.64
2022-11-30T10:05:45.731Z,85.24
2022-11-30T10:08:50.715Z,85.71
2022-11-30T10:11:43.879Z,85.11
2022-11-30T10:14:31.670Z,85.92
2022-11-30T10:17:37.356Z,85.98
2022-11-30T10:20:39.909Z,86.23
2022-11-30T10:24:10.295Z,86.03
2022-11-30T10:26:57.231Z,86.39
2022-11-30T10:29:43.637Z,86.42
2022-11-30T10:32:35.813Z,86.41
2022-11-30T10:35:52.722Z,85.08
2022-11-30T10:38:34.427Z,84.80
2022-11-30T10:41:31.528Z,84.11
2022-11-30T10:44:18.338Z,84.22
2022-11-30T10:47:12.072Z,84.51
2022-11-30T10:49:54.104Z,84.05
2022-11-30T10:52:39.265Z,82.35
2022-11-30T10:55:27.113Z,81.69
2022-11-30T10:58:15.034Z,80.72
2022-11-30T11:01:09.193Z,80.31
2022-11-30T11:03:42.284Z,78.22
2022-11-30T11:06:25.688Z,76.76
2022-11-30T11:08:58.843Z,74.88
2022-11-30T11:11:39.695Z,72.53
2022-11-30T11:14:23.663Z,71.66
2022-11-30T11:17:07.376Z,73.19
2022-11-30T11:19:43.796Z,74.60
2022-11-30T11:22:27.296Z,72.01
2022-11-30T11:25:24.453Z,71.36
2022-11-30T11:28:12.821Z,71.99
2022-11-30T11:30:45.533Z,76.77
2022-11-30T11:33:30.518Z,77.92
2022-11-30T11:36:09.237Z,78.51
2022-11-30T11:38:48.817Z,79.33
2022-11-30T11:41:36.446Z,76.01
2022-11-30T11:44:09.714Z,76.25
2022-11-30T11:47:09.040Z,76.50
2022-11-30T11:49:42.341Z,77.26
2022-11-30T11:52:18.888Z,77.70
2022-11-30T11:55:03.569Z,76.17
2022-11-30T11:57:54.675Z,75.38
2022-11-30T12:00:35.696Z,74.40
2022-11-30T12:03:35.606Z,74.85
2022-11-30T12:06:27.277Z,75.24
2022-11-30T12:09:36.939Z,76.23
2022-11-30T12:12:14.462Z,76.58
2022-11-30T12:14:59.179Z,76.75
2022-11-30T12:17:49.067Z,78.03
2022-11-30T12:21:29.806Z,78.04
2022-11-30T12:24:35.889Z,78.40
2022-11-30T12:27:54.082Z,78.79
2022-11-30T12:31:12.965Z,77.99
2022-11-30T12:34:24.969Z,77.65
2022-11-30T12:37:44.390Z,77.55
2022-11-30T12:41:05.231Z,77.18
2022-11-30T12:44:11.408Z,76.66
2022-11-30T12:47:15.997Z,75.73
2022-11-30T12:50:04.871Z,75.22
2022-11-30T12:53:12.975Z,75.38
2022-11-30T12:56:14.602Z,74.73
2022-11-30T12:59:32.334Z,74.50
2022-11-30T13:02:37.419Z,74.01
2022-11-30T13:05:24.512Z,74.33
2022-11-30T13:08:42.998Z,75.11
2022-11-30T13:11:41.319Z,75.47
2022-11-30T13:14:31.881Z,75.55
2022-11-30T13:17:15.707Z,74.19
2022-11-30T13:20:10.356Z,73.94
2022-11-30T13:23:05.716Z,73.99
2022-11-30T13:26:07.771Z,74.85
2022-11-30T13:28:44.558Z,74.62
2022-11-30T13:31:34.281Z,73.50
2022-11-30T13:34:28.526Z,72.25
2022-11-30T13:37:09.973Z,72.84
2022-11-30T13:40:04.704Z,73.63
2022-11-30T13:42:50.254Z,73.01
2022-11-30T13:45:37.059Z,72.90
2022-11-30T13:48:42.091Z,72.67
2022-11-30T13:51:39.895Z,72.51
2022-11-30T13:54:47.663Z,72.33
2022-11-30T13:57:29.483Z,74.47
2022-11-30T14:00:30.080Z,73.64
2022-11-30T14:03:20.856Z,75.48
2022-11-30T14:06:04.640Z,74.25
2022-11-30T14:08:38.906Z,74.77
2022-11-30T14:11:17.700Z,73.82
2022-11-30T14:13:53.954Z,73.77
2022-11-30T14:16:30.354Z,73.37
2022-11-30T14:19:06.513Z,72.76
2022-11-30T14:21:44.941Z,72.20
2022-11-30T14:24:25.109Z,73.09
2022-11-30T14:27:00.098Z,74.50
2022-11-30T14:29:39.669Z,74.70
2022-11-30T14:32:50.613Z,75.35
2022-11-30T14:35:23.933Z,74.22
2022-11-30T14:38:00.107Z,74.74
2022-11-30T14:40:35.196Z,74.78
2022-11-30T14:43:17.724Z,74.52
2022-11-30T14:46:12.955Z,74.60
2022-11-30T14:49:19.514Z,74.85
2022-11-30T14:52:05.608Z,75.06
2022-11-30T14:55:09.385Z,74.87
2022-11-30T14:58:07.248Z,75.48
2022-11-30T15:00:45.138Z,74.29
2022-11-30T15:03:26.295Z,74.72
2022-11-30T15:06:07.144Z,74.64
2022-11-30T15:08:50.795Z,74.44
2022-11-30T15:11:39.058Z,74.17
2022-11-30T15:14:13.050Z,74.95
2022-11-30T15:17:01.144Z,74.66
2022-11-30T15:19:34.941Z,74.06
2022-11-30T15:22:26.390Z,74.63
2022-11-30T15:24:59.845Z,74.95
2022-11-30T15:27:40.259Z,75.06
2022-11-30T15:30:20.270Z,75.59
2022-11-30T15:32:55.858Z,75.47
2022-11-30T15:35:57.035Z,76.11
2022-11-30T15:38:27.595Z,75.26
2022-11-30T15:41:22.929Z,76.14
2022-11-30T15:44:00.579Z,75.71
2022-11-30T15:46:46.648Z,76.42
2022-11-30T15:49:36.192Z,76.82
2022-11-30T15:52:11.306Z,76.20
2022-11-30T15:54:55.418Z,76.63
2022-11-30T15:58:00.115Z,77.26
2022-11-30T16:00:35.136Z,77.40
2022-11-30T16:03:15.817Z,77.90
2022-11-30T16:06:11.754Z,77.79
2022-11-30T16:08:48.283Z,78.48
2022-11-30T16:11:23.689Z,78.24
2022-11-30T16:13:59.453Z,77.85
2022-11-30T16:16:40.066Z,77.49
2022-11-30T16:19:12.869Z,77.43
2022-11-30T16:21:45.946Z,77.23
2022-11-30T16:24:25.596Z,77.15
2022-11-30T16:26:59.884Z,77.28
2022-11-30T16:29:32.998Z,77.69
2022-11-30T16:32:07.087Z,76.68
2022-11-30T16:34:44.011Z,76.70
2022-11-30T16:37:17.461Z,76.72
2022-11-30T16:39:52.680Z,76.56
2022-11-30T16:42:28.724Z,75.84
2022-11-30T16:45:01.557Z,75.37
2022-11-30T16:47:37.077Z,75.65
2022-11-30T16:50:12.471Z,75.88
2022-11-30T16:52:45.542Z,75.52
2022-11-30T16:55:23.021Z,74.95
2022-11-30T16:57:55.851Z,75.48
2022-11-30T17:00:29.025Z,75.66
2022-11-30T17:03:18.092Z,76.08
2022-11-30T17:05:51.226Z,76.37
2022-11-30T17:08:24.204Z,75.83
2022-11-30T17:10:57.226Z,75.88
2022-11-30T17:13:32.468Z,75.86
2022-11-30T17:16:08.978Z,75.64
2022-11-30T17:18:42.127Z,75.40
2022-11-30T17:21:18.335Z,75.78
2022-11-30T17:23:51.325Z,75.97
2022-11-30T17:26:24.342Z,76.20
2022-11-30T17:28:57.266Z,75.91
2022-11-30T17:31:32.674Z,75.93
2022-11-30T17:34:06.760Z,76.47
2022-11-30T17:36:39.629Z,76.49
2022-11-30T17:39:12.494Z,76.92
2022-11-30T17:41:46.846Z,76.40
2022-11-30T17:44:19.590Z,76.78
2022-11-30T17:46:55.199Z,77.27
2022-11-30T17:49:32.826Z,76.96
2022-11-30T17:52:05.889Z,78.11
2022-11-30T17:54:38.795Z,77.02
2022-11-30T17:57:11.599Z,77.59
2022-11-30T17:59:44.580Z,77.28
2022-11-30T18:02:17.321Z,78.47
2022-11-30T18:04:50.155Z,78.25
2022-11-30T18:07:23.432Z,78.05
2022-11-30T18:09:56.508Z,78.33
2022-11-30T18:12:29.350Z,77.70
2022-11-30T18:15:02.195Z,78.56
2022-11-30T18:17:35.535Z,78.89
2022-11-30T18:20:08.924Z,77.82
2022-11-30T18:22:41.492Z,78.23
2022-11-30T18:25:15.565Z,78.05
2022-11-30T18:27:51.824Z,78.20
2022-11-30T18:30:24.358Z,78.00
2022-11-30T18:32:57.107Z,78.47
2022-11-30T18:35:29.872Z,78.33
2022-11-30T18:38:02.698Z,78.55
2022-11-30T18:40:35.524Z,78.85
2022-11-30T18:43:08.510Z,78.97
2022-11-30T18:45:41.248Z,79.65
2022-11-30T18:48:14.031Z,79.50
2022-11-30T18:50:46.643Z,78.99
2022-11-30T18:53:19.281Z,79.56
2022-11-30T18:55:52.078Z,79.10
2022-11-30T18:58:26.866Z,79.57
2022-11-30T19:01:12.271Z,79.28
2022-11-30T19:03:54.108Z,79.79
2022-11-30T19:06:30.003Z,79.71
2022-11-30T19:09:08.754Z,79.81
2022-11-30T19:11:43.259Z,79.86
2022-11-30T19:14:17.791Z,80.44
2022-11-30T19:16:50.618Z,80.29
2022-11-30T19:19:23.480Z,80.52
2022-11-30T19:21:58.325Z,80.46
2022-11-30T19:24:34.115Z,80.57
2022-11-30T19:27:06.998Z,80.88
2022-11-30T19:29:39.910Z,81.44
2022-11-30T19:32:12.673Z,81.94
2022-11-30T19:34:45.825Z,82.24
2022-11-30T19:37:18.932Z,82.37
2022-11-30T19:39:51.492Z,82.32
2022-11-30T19:42:24.174Z,83.03
2022-11-30T19:44:56.898Z,83.22
2022-11-30T19:47:30.029Z,83.69
2022-11-30T19:50:03.079Z,83.46
2022-11-30T19:52:35.647Z,83.50
2022-11-30T19:55:08.850Z,83.67
2022-11-30T19:57:41.522Z,82.66
2022-11-30T20:00:14.781Z,82.50
2022-11-30T20:02:49.563Z,82.34
2022-11-30T20:05:22.185Z,82.20
2022-11-30T20:07:54.950Z,82.00
2022-11-30T20:10:31.926Z,81.30
2022-11-30T20:13:04.764Z,81.30
2022-11-30T20:15:39.694Z,81.34
2022-11-30T20:18:12.417Z,81.49
2022-11-30T20:20:45.025Z,81.85
2022-11-30T20:23:17.739Z,81.06
2022-11-30T20:25:54.466Z,81.40
2022-11-30T20:28:27.606Z,81.49
2022-11-30T20:31:03.092Z,81.65
2022-11-30T20:33:38.040Z,81.39
2022-11-30T20:36:12.891Z,81.75
2022-11-30T20:38:45.699Z,81.79
2022-11-30T20:41:24.893Z,81.78
2022-11-30T20:43:57.981Z,81.40
2022-11-30T20:46:35.181Z,82.22
2022-11-30T20:49:18.643Z,82.69
2022-11-30T20:51:51.315Z,83.03
2022-11-30T20:54:23.994Z,83.36
2022-11-30T20:56:58.790Z,82.99
2022-11-30T20:59:31.387Z,82.65
2022-11-30T21:02:04.356Z,82.58
2022-11-30T21:04:37.187Z,83.57
2022-11-30T21:07:10.300Z,83.18
2022-11-30T21:09:43.345Z,82.97
2022-11-30T21:12:16.138Z,82.75
2022-11-30T21:14:49.741Z,82.84
2022-11-30T21:17:22.661Z,83.10
2022-11-30T21:19:55.386Z,83.50
2022-11-30T21:22:28.612Z,83.98
2022-11-30T21:25:01.351Z,83.63
2022-11-30T21:27:35.285Z,82.90
2022-11-30T21:30:09.365Z,83.30
2022-11-30T21:32:42.195Z,82.89
2022-11-30T21:35:15.107Z,83.26
2022-11-30T21:37:47.681Z,82.81
2022-11-30T21:40:21.466Z,82.78
2022-11-30T21:42:54.341Z,82.23
2022-11-30T21:45:26.976Z,82.74
2022-11-30T21:47:59.688Z,82.76
2022-11-30T21:50:34.682Z,82.65
2022-11-30T21:53:09.577Z,83.53
2022-11-30T21:55:42.211Z,83.23
2022-11-30T21:58:14.908Z,83.59
2022-11-30T22:00:58.151Z,82.68
2022-11-30T22:03:42.951Z,83.10
2022-11-30T22:06:18.836Z,83.52
2022-11-30T22:08:51.869Z,84.36
2022-11-30T22:11:24.481Z,84.32
2022-11-30T22:13:57.187Z,84.01
2022-11-30T22:16:35.644Z,84.08
2022-11-30T22:19:08.865Z,84.92
2022-11-30T22:21:46.798Z,84.08
2022-11-30T22:24:24.815Z,84.73
2022-11-30T22:26:57.452Z,84.91
2022-11-30T22:29:30.101Z,84.97
2022-11-30T22:32:02.658Z,84.49
2022-11-30T22:34:35.457Z,84.05
2022-11-30T22:37:08.104Z,84.30
2022-11-30T22:39:40.770Z,84.23
2022-11-30T22:42:13.381Z,84.24
2022-11-30T22:44:46.022Z,84.18
2022-11-30T22:47:18.581Z,84.22
2022-11-30T22:49:51.676Z,83.33
2022-11-30T22:52:42.228Z,83.75
2022-11-30T22:55:17.398Z,83.57
2022-11-30T22:57:50.215Z,83.42
2022-11-30T23:00:24.269Z,82.87
2022-11-30T23:02:56.958Z,83.29
2022-11-30T23:05:29.762Z,82.98
2022-11-30T23:08:05.664Z,82.52
2022-11-30T23:10:38.312Z,82.40
2022-11-30T23:13:10.892Z,82.36
2022-11-30T23:15:43.482Z,82.85
2022-11-30T23:18:16.350Z,82.94
2022-11-30T23:20:50.267Z,83.08
2022-11-30T23:23:26.104Z,82.84
2022-11-30T23:26:12.626Z,82.66
2022-11-30T23:28:48.166Z,82.78
2022-11-30T23:31:33.853Z,82.87
2022-11-30T23:34:13.459Z,83.27
2022-11-30T23:36:47.108Z,82.85
2022-11-30T23:39:20.806Z,82.98
2022-11-30T23:41:53.495Z,83.14
2022-11-30T23:44:25.985Z,83.27
2022-11-30T23:47:00.360Z,83.98
2022-11-30T23:49:34.383Z,83.58
2022-11-30T23:52:07.010Z,83.11
2022-11-30T23:54:39.721Z,82.91
2022-11-30T23:57:13.079Z,82.59
2022-11-30T23:59:46.173Z,82.94
